sensor_id;sensor_type;location;lat;lon;timestamp;pressure;altitude;pressure_sealevel;temperature
70831;BMP180;58451;51.550;7.208;2022-11-02T00:00:48;100847.60;;;13.00
70831;BMP180;58451;51.550;7.208;2022-11-02T00:02:21;100850.40;;;12.98
70831;BMP180;58451;51.550;7.208;2022-11-02T00:03:53;100846.40;;;13.00
70831;BMP180;58451;51.550;7.208;2022-11-02T00:05:25;100845.20;;;13.00
70831;BMP180;58451;51.550;7.208;2022-11-02T00:06:57;100845.60;;;13.00
70831;BMP180;58451;51.550;7.208;2022-11-02T00:08:30;100836.40;;;13.00
70831;BMP180;58451;51.550;7.208;2022-11-02T00:10:03;100835.00;;;13.00
70831;BMP180;58451;51.550;7.208;2022-11-02T00:11:37;100829.00;;;13.00
70831;BMP180;58451;51.550;7.208;2022-11-02T00:13:16;100834.80;;;13.00
70831;BMP180;58451;51.550;7.208;2022-11-02T00:14:50;100831.60;;;13.00
70831;BMP180;58451;51.550;7.208;2022-11-02T00:16:22;100839.20;;;13.00
70831;BMP180;58451;51.550;7.208;2022-11-02T00:18:23;100833.00;;;13.00
70831;BMP180;58451;51.550;7.208;2022-11-02T00:19:56;100825.60;;;13.04
70831;BMP180;58451;51.550;7.208;2022-11-02T00:21:32;100829.40;;;13.08
70831;BMP180;58451;51.550;7.208;2022-11-02T00:23:09;100837.60;;;13.08
70831;BMP180;58451;51.550;7.208;2022-11-02T00:24:43;100828.40;;;13.10
70831;BMP180;58451;51.550;7.208;2022-11-02T00:26:22;100831.20;;;13.10
70831;BMP180;58451;51.550;7.208;2022-11-02T00:27:55;100830.20;;;13.10
70831;BMP180;58451;51.550;7.208;2022-11-02T00:29:27;100823.60;;;13.10
70831;BMP180;58451;51.550;7.208;2022-11-02T00:31:06;100822.40;;;13.10
70831;BMP180;58451;51.550;7.208;2022-11-02T00:32:37;100823.00;;;13.10
70831;BMP180;58451;51.550;7.208;2022-11-02T00:34:10;100831.40;;;13.10
70831;BMP180;58451;51.550;7.208;2022-11-02T00:35:45;100822.40;;;13.10
70831;BMP180;58451;51.550;7.208;2022-11-02T00:37:19;100817.80;;;13.10
70831;BMP180;58451;51.550;7.208;2022-11-02T00:38:53;100811.60;;;13.10
70831;BMP180;58451;51.550;7.208;2022-11-02T00:40:26;100811.60;;;13.10
70831;BMP180;58451;51.550;7.208;2022-11-02T00:42:00;100817.00;;;13.10
70831;BMP180;58451;51.550;7.208;2022-11-02T00:43:35;100818.00;;;13.10
70831;BMP180;58451;51.550;7.208;2022-11-02T00:45:09;100817.40;;;13.10
70831;BMP180;58451;51.550;7.208;2022-11-02T00:46:41;100819.40;;;13.10
70831;BMP180;58451;51.550;7.208;2022-11-02T00:48:14;100824.20;;;13.10
70831;BMP180;58451;51.550;7.208;2022-11-02T00:49:46;100821.80;;;13.10
70831;BMP180;58451;51.550;7.208;2022-11-02T00:51:19;100825.80;;;13.10
70831;BMP180;58451;51.550;7.208;2022-11-02T00:52:51;100819.60;;;13.10
70831;BMP180;58451;51.550;7.208;2022-11-02T00:54:23;100823.80;;;13.10
70831;BMP180;58451;51.550;7.208;2022-11-02T00:56:00;100823.20;;;13.18
70831;BMP180;58451;51.550;7.208;2022-11-02T00:57:38;100818.60;;;13.18
70831;BMP180;58451;51.550;7.208;2022-11-02T00:59:11;100819.20;;;13.20
70831;BMP180;58451;51.550;7.208;2022-11-02T01:00:43;100816.20;;;13.14
70831;BMP180;58451;51.550;7.208;2022-11-02T01:02:15;100821.80;;;13.20
70831;BMP180;58451;51.550;7.208;2022-11-02T01:03:48;100816.80;;;13.12
70831;BMP180;58451;51.550;7.208;2022-11-02T01:05:21;100818.80;;;13.10
70831;BMP180;58451;51.550;7.208;2022-11-02T01:06:53;100822.40;;;13.10
70831;BMP180;58451;51.550;7.208;2022-11-02T01:08:26;100820.60;;;13.10
70831;BMP180;58451;51.550;7.208;2022-11-02T01:09:58;100818.80;;;13.10
70831;BMP180;58451;51.550;7.208;2022-11-02T01:11:32;100821.00;;;13.10
70831;BMP180;58451;51.550;7.208;2022-11-02T01:13:06;100819.60;;;13.10
70831;BMP180;58451;51.550;7.208;2022-11-02T01:14:39;100819.40;;;13.10
70831;BMP180;58451;51.550;7.208;2022-11-02T01:16:14;100819.40;;;13.10
70831;BMP180;58451;51.550;7.208;2022-11-02T01:17:46;100815.60;;;13.10
70831;BMP180;58451;51.550;7.208;2022-11-02T01:19:21;100808.20;;;13.10
70831;BMP180;58451;51.550;7.208;2022-11-02T01:20:57;100808.40;;;13.10
70831;BMP180;58451;51.550;7.208;2022-11-02T01:22:31;100808.40;;;13.10
70831;BMP180;58451;51.550;7.208;2022-11-02T01:24:04;100814.40;;;13.02
70831;BMP180;58451;51.550;7.208;2022-11-02T01:25:44;100817.00;;;13.00
70831;BMP180;58451;51.550;7.208;2022-11-02T01:27:16;100815.20;;;13.00
70831;BMP180;58451;51.550;7.208;2022-11-02T01:28:49;100810.00;;;13.00
70831;BMP180;58451;51.550;7.208;2022-11-02T01:30:23;100808.40;;;13.00
70831;BMP180;58451;51.550;7.208;2022-11-02T01:31:55;100812.40;;;13.00
70831;BMP180;58451;51.550;7.208;2022-11-02T01:33:27;100816.40;;;12.94
70831;BMP180;58451;51.550;7.208;2022-11-02T01:34:59;100817.20;;;12.90
70831;BMP180;58451;51.550;7.208;2022-11-02T01:36:31;100814.40;;;12.90
70831;BMP180;58451;51.550;7.208;2022-11-02T01:38:04;100820.40;;;12.90
70831;BMP180;58451;51.550;7.208;2022-11-02T01:39:37;100817.60;;;12.90
70831;BMP180;58451;51.550;7.208;2022-11-02T01:41:10;100822.00;;;12.80
70831;BMP180;58451;51.550;7.208;2022-11-02T01:42:45;100822.20;;;12.80
70831;BMP180;58451;51.550;7.208;2022-11-02T01:44:33;100815.40;;;12.80
70831;BMP180;58451;51.550;7.208;2022-11-02T01:46:19;100819.80;;;12.80
70831;BMP180;58451;51.550;7.208;2022-11-02T01:47:54;100813.20;;;12.80
70831;BMP180;58451;51.550;7.208;2022-11-02T01:49:30;100817.00;;;12.72
70831;BMP180;58451;51.550;7.208;2022-11-02T01:51:45;100815.80;;;12.70
70831;BMP180;58451;51.550;7.208;2022-11-02T01:53:09;100817.80;;;12.70
70831;BMP180;58451;51.550;7.208;2022-11-02T01:54:58;100813.60;;;12.70
70831;BMP180;58451;51.550;7.208;2022-11-02T01:56:32;100821.40;;;12.64
70831;BMP180;58451;51.550;7.208;2022-11-02T01:58:11;100818.40;;;12.60
70831;BMP180;58451;51.550;7.208;2022-11-02T02:01:31;100816.60;;;12.60
70831;BMP180;58451;51.550;7.208;2022-11-02T02:03:12;100820.40;;;12.60
70831;BMP180;58451;51.550;7.208;2022-11-02T02:05:06;100821.40;;;12.60
70831;BMP180;58451;51.550;7.208;2022-11-02T02:06:40;100815.00;;;12.50
70831;BMP180;58451;51.550;7.208;2022-11-02T02:08:19;100816.20;;;12.50
70831;BMP180;58451;51.550;7.208;2022-11-02T02:09:53;100818.80;;;12.50
70831;BMP180;58451;51.550;7.208;2022-11-02T02:11:39;100821.20;;;12.50
70831;BMP180;58451;51.550;7.208;2022-11-02T02:13:12;100820.80;;;12.50
70831;BMP180;58451;51.550;7.208;2022-11-02T02:14:46;100813.60;;;12.52
70831;BMP180;58451;51.550;7.208;2022-11-02T02:16:39;100822.20;;;12.60
70831;BMP180;58451;51.550;7.208;2022-11-02T02:18:31;100827.20;;;12.60
70831;BMP180;58451;51.550;7.208;2022-11-02T02:24:47;100818.40;;;12.76
70831;BMP180;58451;51.550;7.208;2022-11-02T02:28:55;100822.80;;;12.80
70831;BMP180;58451;51.550;7.208;2022-11-02T02:33:00;100820.80;;;12.80
70831;BMP180;58451;51.550;7.208;2022-11-02T02:34:53;100828.00;;;12.80
70831;BMP180;58451;51.550;7.208;2022-11-02T02:36:35;100820.60;;;12.80
70831;BMP180;58451;51.550;7.208;2022-11-02T02:38:16;100821.40;;;12.70
70831;BMP180;58451;51.550;7.208;2022-11-02T02:40:04;100828.80;;;12.70
70831;BMP180;58451;51.550;7.208;2022-11-02T02:41:48;100828.40;;;12.64
70831;BMP180;58451;51.550;7.208;2022-11-02T02:43:32;100821.80;;;12.60
70831;BMP180;58451;51.550;7.208;2022-11-02T02:47:20;100820.40;;;12.50
70831;BMP180;58451;51.550;7.208;2022-11-02T02:48:58;100822.00;;;12.50
70831;BMP180;58451;51.550;7.208;2022-11-02T02:50:40;100817.80;;;12.46
70831;BMP180;58451;51.550;7.208;2022-11-02T02:52:21;100824.00;;;12.40
70831;BMP180;58451;51.550;7.208;2022-11-02T02:54:03;100819.00;;;12.40
70831;BMP180;58451;51.550;7.208;2022-11-02T02:55:45;100819.40;;;12.40
70831;BMP180;58451;51.550;7.208;2022-11-02T02:57:21;100816.40;;;12.34
70831;BMP180;58451;51.550;7.208;2022-11-02T02:59:27;100819.00;;;12.30
70831;BMP180;58451;51.550;7.208;2022-11-02T03:01:05;100818.80;;;12.30
70831;BMP180;58451;51.550;7.208;2022-11-02T03:02:42;100818.80;;;12.26
70831;BMP180;58451;51.550;7.208;2022-11-02T03:04:15;100816.20;;;12.24
70831;BMP180;58451;51.550;7.208;2022-11-02T03:07:42;100815.00;;;12.20
70831;BMP180;58451;51.550;7.208;2022-11-02T03:11:15;100821.40;;;12.20
70831;BMP180;58451;51.550;7.208;2022-11-02T03:17:04;100825.40;;;12.20
70831;BMP180;58451;51.550;7.208;2022-11-02T03:18:55;100828.20;;;12.30
70831;BMP180;58451;51.550;7.208;2022-11-02T03:24:46;100836.80;;;12.38
70831;BMP180;58451;51.550;7.208;2022-11-02T03:26:30;100835.60;;;12.30
70831;BMP180;58451;51.550;7.208;2022-11-02T03:28:34;100836.00;;;12.30
70831;BMP180;58451;51.550;7.208;2022-11-02T03:30:19;100844.00;;;12.30
70831;BMP180;58451;51.550;7.208;2022-11-02T03:32:01;100841.60;;;12.30
70831;BMP180;58451;51.550;7.208;2022-11-02T03:33:53;100848.80;;;12.30
70831;BMP180;58451;51.550;7.208;2022-11-02T03:35:57;100851.40;;;12.30
70831;BMP180;58451;51.550;7.208;2022-11-02T03:37:41;100850.40;;;12.30
70831;BMP180;58451;51.550;7.208;2022-11-02T03:39:28;100856.00;;;12.30
70831;BMP180;58451;51.550;7.208;2022-11-02T03:41:06;100850.40;;;12.30
70831;BMP180;58451;51.550;7.208;2022-11-02T03:42:41;100858.20;;;12.30
70831;BMP180;58451;51.550;7.208;2022-11-02T03:44:20;100859.20;;;12.30
70831;BMP180;58451;51.550;7.208;2022-11-02T03:45:57;100855.00;;;12.30
70831;BMP180;58451;51.550;7.208;2022-11-02T03:47:35;100860.00;;;12.30
70831;BMP180;58451;51.550;7.208;2022-11-02T03:49:17;100859.20;;;12.30
70831;BMP180;58451;51.550;7.208;2022-11-02T03:50:53;100859.20;;;12.22
70831;BMP180;58451;51.550;7.208;2022-11-02T03:52:31;100860.20;;;12.20
70831;BMP180;58451;51.550;7.208;2022-11-02T03:56:45;100860.80;;;12.20
70831;BMP180;58451;51.550;7.208;2022-11-02T03:58:18;100864.00;;;12.20
70831;BMP180;58451;51.550;7.208;2022-11-02T03:59:50;100864.60;;;12.20
70831;BMP180;58451;51.550;7.208;2022-11-02T04:01:26;100862.20;;;12.20
70831;BMP180;58451;51.550;7.208;2022-11-02T04:03:00;100874.20;;;12.20
70831;BMP180;58451;51.550;7.208;2022-11-02T04:04:48;100878.20;;;12.20
70831;BMP180;58451;51.550;7.208;2022-11-02T04:06:22;100876.60;;;12.20
70831;BMP180;58451;51.550;7.208;2022-11-02T04:08:02;100880.20;;;12.10
70831;BMP180;58451;51.550;7.208;2022-11-02T04:10:01;100879.80;;;12.10
70831;BMP180;58451;51.550;7.208;2022-11-02T04:11:34;100876.60;;;12.10
70831;BMP180;58451;51.550;7.208;2022-11-02T04:13:25;100889.00;;;12.10
70831;BMP180;58451;51.550;7.208;2022-11-02T04:15:16;100889.40;;;12.10
70831;BMP180;58451;51.550;7.208;2022-11-02T04:16:47;100893.60;;;12.10
70831;BMP180;58451;51.550;7.208;2022-11-02T04:18:29;100899.80;;;12.10
70831;BMP180;58451;51.550;7.208;2022-11-02T04:20:19;100897.60;;;12.10
70831;BMP180;58451;51.550;7.208;2022-11-02T04:21:51;100890.60;;;12.10
70831;BMP180;58451;51.550;7.208;2022-11-02T04:23:43;100894.20;;;12.20
70831;BMP180;58451;51.550;7.208;2022-11-02T04:25:33;100892.60;;;12.20
70831;BMP180;58451;51.550;7.208;2022-11-02T04:27:32;100893.20;;;12.20
70831;BMP180;58451;51.550;7.208;2022-11-02T04:29:05;100894.60;;;12.20
70831;BMP180;58451;51.550;7.208;2022-11-02T04:30:38;100894.20;;;12.20
70831;BMP180;58451;51.550;7.208;2022-11-02T04:32:11;100902.40;;;12.20
70831;BMP180;58451;51.550;7.208;2022-11-02T04:33:45;100894.80;;;12.26
70831;BMP180;58451;51.550;7.208;2022-11-02T04:35:20;100902.60;;;12.30
70831;BMP180;58451;51.550;7.208;2022-11-02T04:36:51;100905.80;;;12.30
70831;BMP180;58451;51.550;7.208;2022-11-02T04:38:23;100910.20;;;12.26
70831;BMP180;58451;51.550;7.208;2022-11-02T04:40:22;100906.00;;;12.20
70831;BMP180;58451;51.550;7.208;2022-11-02T04:41:54;100906.60;;;12.20
70831;BMP180;58451;51.550;7.208;2022-11-02T04:43:33;100906.20;;;12.20
70831;BMP180;58451;51.550;7.208;2022-11-02T04:45:06;100909.20;;;12.14
70831;BMP180;58451;51.550;7.208;2022-11-02T04:46:40;100910.00;;;12.10
70831;BMP180;58451;51.550;7.208;2022-11-02T04:48:13;100913.00;;;12.10
70831;BMP180;58451;51.550;7.208;2022-11-02T04:49:47;100913.40;;;12.10
70831;BMP180;58451;51.550;7.208;2022-11-02T04:51:23;100924.80;;;12.10
70831;BMP180;58451;51.550;7.208;2022-11-02T04:52:59;100924.00;;;12.12
70831;BMP180;58451;51.550;7.208;2022-11-02T04:54:32;100932.80;;;12.10
70831;BMP180;58451;51.550;7.208;2022-11-02T04:56:06;100932.20;;;12.20
70831;BMP180;58451;51.550;7.208;2022-11-02T04:57:44;100929.00;;;12.20
70831;BMP180;58451;51.550;7.208;2022-11-02T04:59:16;100930.40;;;12.20
70831;BMP180;58451;51.550;7.208;2022-11-02T05:00:48;100930.20;;;12.20
70831;BMP180;58451;51.550;7.208;2022-11-02T05:02:21;100937.20;;;12.20
70831;BMP180;58451;51.550;7.208;2022-11-02T05:03:56;100935.00;;;12.20
70831;BMP180;58451;51.550;7.208;2022-11-02T05:05:28;100941.80;;;12.20
70831;BMP180;58451;51.550;7.208;2022-11-02T05:07:02;100941.40;;;12.20
70831;BMP180;58451;51.550;7.208;2022-11-02T05:08:38;100947.40;;;12.30
70831;BMP180;58451;51.550;7.208;2022-11-02T05:10:14;100947.60;;;12.30
70831;BMP180;58451;51.550;7.208;2022-11-02T05:11:48;100949.00;;;12.30
70831;BMP180;58451;51.550;7.208;2022-11-02T05:13:22;100940.20;;;12.30
70831;BMP180;58451;51.550;7.208;2022-11-02T05:14:55;100940.20;;;12.30
70831;BMP180;58451;51.550;7.208;2022-11-02T05:16:27;100944.00;;;12.30
70831;BMP180;58451;51.550;7.208;2022-11-02T05:18:00;100941.80;;;12.30
70831;BMP180;58451;51.550;7.208;2022-11-02T05:19:34;100940.60;;;12.30
70831;BMP180;58451;51.550;7.208;2022-11-02T05:21:09;100949.60;;;12.30
70831;BMP180;58451;51.550;7.208;2022-11-02T05:22:42;100942.00;;;12.30
70831;BMP180;58451;51.550;7.208;2022-11-02T05:24:17;100945.00;;;12.30
70831;BMP180;58451;51.550;7.208;2022-11-02T05:25:58;100948.80;;;12.30
70831;BMP180;58451;51.550;7.208;2022-11-02T05:27:32;100956.80;;;12.30
70831;BMP180;58451;51.550;7.208;2022-11-02T05:29:06;100954.60;;;12.30
70831;BMP180;58451;51.550;7.208;2022-11-02T05:30:39;100956.20;;;12.32
70831;BMP180;58451;51.550;7.208;2022-11-02T05:32:11;100963.80;;;12.40
70831;BMP180;58451;51.550;7.208;2022-11-02T05:33:46;100960.00;;;12.40
70831;BMP180;58451;51.550;7.208;2022-11-02T05:35:22;100961.00;;;12.40
70831;BMP180;58451;51.550;7.208;2022-11-02T05:36:54;100966.80;;;12.40
70831;BMP180;58451;51.550;7.208;2022-11-02T05:38:28;100961.20;;;12.32
70831;BMP180;58451;51.550;7.208;2022-11-02T05:40:06;100967.20;;;12.30
70831;BMP180;58451;51.550;7.208;2022-11-02T05:41:42;100961.80;;;12.30
70831;BMP180;58451;51.550;7.208;2022-11-02T05:43:14;100965.00;;;12.30
70831;BMP180;58451;51.550;7.208;2022-11-02T05:44:47;100960.60;;;12.30
70831;BMP180;58451;51.550;7.208;2022-11-02T05:46:21;100962.40;;;12.30
70831;BMP180;58451;51.550;7.208;2022-11-02T05:47:58;100963.20;;;12.30
70831;BMP180;58451;51.550;7.208;2022-11-02T05:49:31;100964.00;;;12.26
70831;BMP180;58451;51.550;7.208;2022-11-02T05:51:06;100965.40;;;12.22
70831;BMP180;58451;51.550;7.208;2022-11-02T05:52:38;100961.00;;;12.20
70831;BMP180;58451;51.550;7.208;2022-11-02T05:54:10;100962.80;;;12.20
70831;BMP180;58451;51.550;7.208;2022-11-02T05:55:44;100973.80;;;12.20
70831;BMP180;58451;51.550;7.208;2022-11-02T05:57:16;100967.60;;;12.20
70831;BMP180;58451;51.550;7.208;2022-11-02T05:58:48;100974.80;;;12.20
70831;BMP180;58451;51.550;7.208;2022-11-02T06:00:25;100974.60;;;12.20
70831;BMP180;58451;51.550;7.208;2022-11-02T06:01:58;100973.40;;;12.20
70831;BMP180;58451;51.550;7.208;2022-11-02T06:03:32;100983.40;;;12.20
70831;BMP180;58451;51.550;7.208;2022-11-02T06:05:04;100983.40;;;12.20
70831;BMP180;58451;51.550;7.208;2022-11-02T06:06:37;100983.00;;;12.20
70831;BMP180;58451;51.550;7.208;2022-11-02T06:08:08;100989.20;;;12.10
70831;BMP180;58451;51.550;7.208;2022-11-02T06:09:40;100984.40;;;12.10
70831;BMP180;58451;51.550;7.208;2022-11-02T06:11:13;100986.60;;;12.10
70831;BMP180;58451;51.550;7.208;2022-11-02T06:12:52;100985.20;;;12.02
70831;BMP180;58451;51.550;7.208;2022-11-02T06:14:24;100988.40;;;12.00
70831;BMP180;58451;51.550;7.208;2022-11-02T06:16:01;100983.00;;;12.00
70831;BMP180;58451;51.550;7.208;2022-11-02T06:17:40;100997.40;;;12.00
70831;BMP180;58451;51.550;7.208;2022-11-02T06:19:12;101002.20;;;12.00
70831;BMP180;58451;51.550;7.208;2022-11-02T06:20:51;101001.80;;;12.00
70831;BMP180;58451;51.550;7.208;2022-11-02T06:22:23;101001.60;;;12.00
70831;BMP180;58451;51.550;7.208;2022-11-02T06:23:56;101002.20;;;12.00
70831;BMP180;58451;51.550;7.208;2022-11-02T06:25:33;101008.80;;;11.96
70831;BMP180;58451;51.550;7.208;2022-11-02T06:27:06;101007.20;;;11.92
70831;BMP180;58451;51.550;7.208;2022-11-02T06:28:38;101011.60;;;11.90
70831;BMP180;58451;51.550;7.208;2022-11-02T06:30:12;101017.80;;;11.90
70831;BMP180;58451;51.550;7.208;2022-11-02T06:32:13;101026.40;;;11.90
70831;BMP180;58451;51.550;7.208;2022-11-02T06:34:04;101025.60;;;11.92
70831;BMP180;58451;51.550;7.208;2022-11-02T06:35:37;101025.80;;;11.96
70831;BMP180;58451;51.550;7.208;2022-11-02T06:37:13;101034.00;;;12.00
70831;BMP180;58451;51.550;7.208;2022-11-02T06:38:49;101039.40;;;12.00
70831;BMP180;58451;51.550;7.208;2022-11-02T06:40:22;101043.20;;;12.02
70831;BMP180;58451;51.550;7.208;2022-11-02T06:42:10;101043.00;;;12.10
70831;BMP180;58451;51.550;7.208;2022-11-02T06:43:56;101049.60;;;12.10
70831;BMP180;58451;51.550;7.208;2022-11-02T06:45:29;101045.80;;;12.14
70831;BMP180;58451;51.550;7.208;2022-11-02T06:47:02;101054.80;;;12.20
70831;BMP180;58451;51.550;7.208;2022-11-02T06:48:36;101053.40;;;12.20
70831;BMP180;58451;51.550;7.208;2022-11-02T06:50:09;101065.80;;;12.20
70831;BMP180;58451;51.550;7.208;2022-11-02T06:51:41;101066.40;;;12.20
70831;BMP180;58451;51.550;7.208;2022-11-02T06:53:14;101082.00;;;12.20
70831;BMP180;58451;51.550;7.208;2022-11-02T06:54:46;101075.00;;;12.30
70831;BMP180;58451;51.550;7.208;2022-11-02T06:56:19;101078.60;;;12.30
70831;BMP180;58451;51.550;7.208;2022-11-02T06:57:51;101079.80;;;12.32
70831;BMP180;58451;51.550;7.208;2022-11-02T06:59:25;101088.00;;;12.36
70831;BMP180;58451;51.550;7.208;2022-11-02T07:01:05;101089.80;;;12.38
70831;BMP180;58451;51.550;7.208;2022-11-02T07:02:40;101089.80;;;12.36
70831;BMP180;58451;51.550;7.208;2022-11-02T07:04:20;101090.20;;;12.30
70831;BMP180;58451;51.550;7.208;2022-11-02T07:05:53;101103.60;;;12.30
70831;BMP180;58451;51.550;7.208;2022-11-02T07:07:30;101092.20;;;12.40
70831;BMP180;58451;51.550;7.208;2022-11-02T07:09:02;101100.60;;;12.40
70831;BMP180;58451;51.550;7.208;2022-11-02T07:10:35;101094.40;;;12.40
70831;BMP180;58451;51.550;7.208;2022-11-02T07:12:07;101102.40;;;12.40
70831;BMP180;58451;51.550;7.208;2022-11-02T07:13:39;101108.80;;;12.40
70831;BMP180;58451;51.550;7.208;2022-11-02T07:15:16;101112.60;;;12.40
70831;BMP180;58451;51.550;7.208;2022-11-02T07:16:48;101120.40;;;12.40
70831;BMP180;58451;51.550;7.208;2022-11-02T07:18:21;101114.80;;;12.40
70831;BMP180;58451;51.550;7.208;2022-11-02T07:19:54;101119.60;;;12.40
70831;BMP180;58451;51.550;7.208;2022-11-02T07:21:27;101133.20;;;12.40
70831;BMP180;58451;51.550;7.208;2022-11-02T07:23:04;101143.00;;;12.50
70831;BMP180;58451;51.550;7.208;2022-11-02T07:24:38;101139.20;;;12.50
70831;BMP180;58451;51.550;7.208;2022-11-02T07:26:10;101141.00;;;12.50
70831;BMP180;58451;51.550;7.208;2022-11-02T07:27:42;101138.80;;;12.50
70831;BMP180;58451;51.550;7.208;2022-11-02T07:29:16;101142.60;;;12.50
70831;BMP180;58451;51.550;7.208;2022-11-02T07:30:53;101154.00;;;12.50
70831;BMP180;58451;51.550;7.208;2022-11-02T07:32:29;101150.00;;;12.50
70831;BMP180;58451;51.550;7.208;2022-11-02T07:34:03;101149.40;;;12.50
70831;BMP180;58451;51.550;7.208;2022-11-02T07:35:36;101155.80;;;12.60
70831;BMP180;58451;51.550;7.208;2022-11-02T07:37:08;101159.40;;;12.60
70831;BMP180;58451;51.550;7.208;2022-11-02T07:38:44;101164.00;;;12.60
70831;BMP180;58451;51.550;7.208;2022-11-02T07:40:16;101166.60;;;12.70
70831;BMP180;58451;51.550;7.208;2022-11-02T07:41:49;101175.60;;;12.70
70831;BMP180;58451;51.550;7.208;2022-11-02T07:43:22;101177.60;;;12.64
70831;BMP180;58451;51.550;7.208;2022-11-02T07:45:17;101171.60;;;12.70
70831;BMP180;58451;51.550;7.208;2022-11-02T07:47:10;101185.80;;;12.78
70831;BMP180;58451;51.550;7.208;2022-11-02T07:48:43;101185.00;;;12.76
70831;BMP180;58451;51.550;7.208;2022-11-02T07:50:23;101184.40;;;12.80
70831;BMP180;58451;51.550;7.208;2022-11-02T07:51:55;101185.80;;;12.80
70831;BMP180;58451;51.550;7.208;2022-11-02T07:53:30;101194.40;;;12.90
70831;BMP180;58451;51.550;7.208;2022-11-02T07:55:05;101205.20;;;12.88
70831;BMP180;58451;51.550;7.208;2022-11-02T07:56:40;101194.00;;;12.90
70831;BMP180;58451;51.550;7.208;2022-11-02T07:58:20;101199.60;;;12.90
70831;BMP180;58451;51.550;7.208;2022-11-02T07:59:56;101202.60;;;12.90
70831;BMP180;58451;51.550;7.208;2022-11-02T08:01:28;101208.40;;;12.90
70831;BMP180;58451;51.550;7.208;2022-11-02T08:03:01;101214.20;;;12.90
70831;BMP180;58451;51.550;7.208;2022-11-02T08:04:34;101213.00;;;12.90
70831;BMP180;58451;51.550;7.208;2022-11-02T08:06:11;101216.00;;;12.90
70831;BMP180;58451;51.550;7.208;2022-11-02T08:07:43;101213.20;;;12.90
70831;BMP180;58451;51.550;7.208;2022-11-02T08:09:15;101216.00;;;12.90
70831;BMP180;58451;51.550;7.208;2022-11-02T08:10:50;101209.20;;;13.00
70831;BMP180;58451;51.550;7.208;2022-11-02T08:12:24;101222.40;;;13.00
70831;BMP180;58451;51.550;7.208;2022-11-02T08:13:56;101212.40;;;13.00
70831;BMP180;58451;51.550;7.208;2022-11-02T08:15:28;101207.40;;;13.10
70831;BMP180;58451;51.550;7.208;2022-11-02T08:17:00;101224.20;;;13.10
70831;BMP180;58451;51.550;7.208;2022-11-02T08:18:32;101228.60;;;13.20
70831;BMP180;58451;51.550;7.208;2022-11-02T08:20:06;101227.40;;;13.10
70831;BMP180;58451;51.550;7.208;2022-11-02T08:21:41;101226.40;;;13.12
70831;BMP180;58451;51.550;7.208;2022-11-02T08:23:19;101223.80;;;13.20
70831;BMP180;58451;51.550;7.208;2022-11-02T08:24:51;101219.20;;;13.20
70831;BMP180;58451;51.550;7.208;2022-11-02T08:26:23;101232.20;;;13.10
70831;BMP180;58451;51.550;7.208;2022-11-02T08:27:59;101230.00;;;13.20
70831;BMP180;58451;51.550;7.208;2022-11-02T08:29:31;101234.80;;;13.20
70831;BMP180;58451;51.550;7.208;2022-11-02T08:31:13;101244.80;;;13.18
70831;BMP180;58451;51.550;7.208;2022-11-02T08:33:14;101229.00;;;13.10
70831;BMP180;58451;51.550;7.208;2022-11-02T08:34:47;101244.40;;;13.20
70831;BMP180;58451;51.550;7.208;2022-11-02T08:36:19;101245.60;;;13.20
70831;BMP180;58451;51.550;7.208;2022-11-02T08:37:55;101253.80;;;13.20
70831;BMP180;58451;51.550;7.208;2022-11-02T08:39:27;101246.20;;;13.20
70831;BMP180;58451;51.550;7.208;2022-11-02T08:41:00;101241.80;;;13.30
70831;BMP180;58451;51.550;7.208;2022-11-02T08:42:34;101248.20;;;13.30
70831;BMP180;58451;51.550;7.208;2022-11-02T08:44:11;101257.60;;;13.26
70831;BMP180;58451;51.550;7.208;2022-11-02T08:45:43;101253.20;;;13.24
70831;BMP180;58451;51.550;7.208;2022-11-02T08:47:42;101263.40;;;13.30
70831;BMP180;58451;51.550;7.208;2022-11-02T08:49:24;101261.80;;;13.28
70831;BMP180;58451;51.550;7.208;2022-11-02T08:50:57;101261.60;;;13.20
70831;BMP180;58451;51.550;7.208;2022-11-02T08:52:38;101262.20;;;13.20
70831;BMP180;58451;51.550;7.208;2022-11-02T08:54:21;101266.40;;;13.30
70831;BMP180;58451;51.550;7.208;2022-11-02T08:55:57;101263.80;;;13.30
70831;BMP180;58451;51.550;7.208;2022-11-02T08:57:32;101268.80;;;13.30
70831;BMP180;58451;51.550;7.208;2022-11-02T08:59:07;101270.20;;;13.30
70831;BMP180;58451;51.550;7.208;2022-11-02T09:00:40;101281.40;;;13.32
70831;BMP180;58451;51.550;7.208;2022-11-02T09:02:12;101286.20;;;13.30
70831;BMP180;58451;51.550;7.208;2022-11-02T09:03:45;101280.40;;;13.30
70831;BMP180;58451;51.550;7.208;2022-11-02T09:05:17;101279.00;;;13.30
70831;BMP180;58451;51.550;7.208;2022-11-02T09:06:49;101277.60;;;13.30
70831;BMP180;58451;51.550;7.208;2022-11-02T09:08:23;101289.20;;;13.46
70831;BMP180;58451;51.550;7.208;2022-11-02T09:09:56;101288.60;;;13.50
70831;BMP180;58451;51.550;7.208;2022-11-02T09:11:28;101292.80;;;13.58
70831;BMP180;58451;51.550;7.208;2022-11-02T09:13:05;101289.60;;;13.60
70831;BMP180;58451;51.550;7.208;2022-11-02T09:14:38;101281.20;;;13.68
70831;BMP180;58451;51.550;7.208;2022-11-02T09:16:10;101280.40;;;13.70
70831;BMP180;58451;51.550;7.208;2022-11-02T09:17:48;101286.60;;;13.80
70831;BMP180;58451;51.550;7.208;2022-11-02T09:19:23;101289.60;;;13.80
70831;BMP180;58451;51.550;7.208;2022-11-02T09:20:55;101293.40;;;13.72
70831;BMP180;58451;51.550;7.208;2022-11-02T09:22:39;101291.40;;;13.80
70831;BMP180;58451;51.550;7.208;2022-11-02T09:24:11;101302.60;;;13.90
70831;BMP180;58451;51.550;7.208;2022-11-02T09:25:43;101294.20;;;13.90
70831;BMP180;58451;51.550;7.208;2022-11-02T09:27:16;101303.20;;;13.90
70831;BMP180;58451;51.550;7.208;2022-11-02T09:28:49;101309.00;;;13.80
70831;BMP180;58451;51.550;7.208;2022-11-02T09:30:24;101306.00;;;13.80
70831;BMP180;58451;51.550;7.208;2022-11-02T09:31:58;101302.00;;;13.80
70831;BMP180;58451;51.550;7.208;2022-11-02T09:33:33;101300.60;;;13.86
70831;BMP180;58451;51.550;7.208;2022-11-02T09:35:10;101302.20;;;13.90
70831;BMP180;58451;51.550;7.208;2022-11-02T09:36:43;101309.60;;;14.00